sensor_id;sensor_type;location;lat;lon;timestamp;temperature;humidity
4306;DHT22;2166;49.926;8.608;2023-05-07T00:00:47;15.60;74.10
4306;DHT22;2166;49.926;8.608;2023-05-07T00:03:18;15.60;74.10
4306;DHT22;2166;49.926;8.608;2023-05-07T00:05:50;15.70;74.10
4306;DHT22;2166;49.926;8.608;2023-05-07T00:08:20;15.70;74.20
4306;DHT22;2166;49.926;8.608;2023-05-07T00:10:51;15.80;74.20
4306;DHT22;2166;49.926;8.608;2023-05-07T00:13:21;15.80;74.20
4306;DHT22;2166;49.926;8.608;2023-05-07T00:15:51;15.80;74.10
4306;DHT22;2166;49.926;8.608;2023-05-07T00:18:23;15.80;74.20
4306;DHT22;2166;49.926;8.608;2023-05-07T00:20:55;15.80;74.30
4306;DHT22;2166;49.926;8.608;2023-05-07T00:23:27;15.70;74.50
4306;DHT22;2166;49.926;8.608;2023-05-07T00:25:58;15.60;74.70
4306;DHT22;2166;49.926;8.608;2023-05-07T00:28:32;15.60;74.90
4306;DHT22;2166;49.926;8.608;2023-05-07T00:31:01;15.40;75.10
4306;DHT22;2166;49.926;8.608;2023-05-07T00:33:32;15.30;75.30
4306;DHT22;2166;49.926;8.608;2023-05-07T00:36:06;15.20;75.50
4306;DHT22;2166;49.926;8.608;2023-05-07T00:38:36;15.10;75.70
4306;DHT22;2166;49.926;8.608;2023-05-07T00:41:05;15.00;75.70
4306;DHT22;2166;49.926;8.608;2023-05-07T00:43:36;15.00;75.70
4306;DHT22;2166;49.926;8.608;2023-05-07T00:46:04;15.00;75.80
4306;DHT22;2166;49.926;8.608;2023-05-07T00:48:34;15.00;76.00
4306;DHT22;2166;49.926;8.608;2023-05-07T00:51:03;15.00;76.00
4306;DHT22;2166;49.926;8.608;2023-05-07T00:53:33;15.00;76.10
4306;DHT22;2166;49.926;8.608;2023-05-07T00:56:05;14.90;76.10
4306;DHT22;2166;49.926;8.608;2023-05-07T00:58:36;14.90;76.10
4306;DHT22;2166;49.926;8.608;2023-05-07T01:01:04;15.00;76.10
4306;DHT22;2166;49.926;8.608;2023-05-07T01:03:37;15.00;76.10
4306;DHT22;2166;49.926;8.608;2023-05-07T01:06:07;15.00;76.00
4306;DHT22;2166;49.926;8.608;2023-05-07T01:08:36;15.00;76.00
4306;DHT22;2166;49.926;8.608;2023-05-07T01:11:07;15.00;76.10
4306;DHT22;2166;49.926;8.608;2023-05-07T01:13:38;15.00;76.00
4306;DHT22;2166;49.926;8.608;2023-05-07T01:16:08;15.00;75.90
4306;DHT22;2166;49.926;8.608;2023-05-07T01:18:38;15.00;75.90
4306;DHT22;2166;49.926;8.608;2023-05-07T01:21:08;14.90;76.00
4306;DHT22;2166;49.926;8.608;2023-05-07T01:23:41;14.90;76.00
4306;DHT22;2166;49.926;8.608;2023-05-07T01:26:10;14.90;76.00
4306;DHT22;2166;49.926;8.608;2023-05-07T01:28:39;14.90;76.10
4306;DHT22;2166;49.926;8.608;2023-05-07T01:31:08;14.90;76.10
4306;DHT22;2166;49.926;8.608;2023-05-07T01:33:38;15.00;76.10
4306;DHT22;2166;49.926;8.608;2023-05-07T01:36:09;15.00;76.10
4306;DHT22;2166;49.926;8.608;2023-05-07T01:38:41;15.10;76.00
4306;DHT22;2166;49.926;8.608;2023-05-07T01:41:10;15.10;76.00
4306;DHT22;2166;49.926;8.608;2023-05-07T01:43:40;15.20;75.80
4306;DHT22;2166;49.926;8.608;2023-05-07T01:46:10;15.20;75.80
4306;DHT22;2166;49.926;8.608;2023-05-07T01:48:39;15.30;75.80
4306;DHT22;2166;49.926;8.608;2023-05-07T01:51:08;15.30;75.80
4306;DHT22;2166;49.926;8.608;2023-05-07T01:53:37;15.30;75.70
4306;DHT22;2166;49.926;8.608;2023-05-07T01:56:08;15.30;75.80
4306;DHT22;2166;49.926;8.608;2023-05-07T01:58:40;15.30;75.90
4306;DHT22;2166;49.926;8.608;2023-05-07T02:01:08;15.20;75.90
4306;DHT22;2166;49.926;8.608;2023-05-07T02:03:37;15.20;75.90
4306;DHT22;2166;49.926;8.608;2023-05-07T02:06:12;15.30;75.90
4306;DHT22;2166;49.926;8.608;2023-05-07T02:08:41;15.30;75.90
4306;DHT22;2166;49.926;8.608;2023-05-07T02:11:12;15.30;75.80
4306;DHT22;2166;49.926;8.608;2023-05-07T02:13:41;15.30;75.80
4306;DHT22;2166;49.926;8.608;2023-05-07T02:16:10;15.30;75.80
4306;DHT22;2166;49.926;8.608;2023-05-07T02:18:41;15.30;75.90
4306;DHT22;2166;49.926;8.608;2023-05-07T02:21:09;15.30;75.80
4306;DHT22;2166;49.926;8.608;2023-05-07T02:23:38;15.30;75.80
4306;DHT22;2166;49.926;8.608;2023-05-07T02:26:07;15.30;75.90
4306;DHT22;2166;49.926;8.608;2023-05-07T02:28:37;15.30;75.80
4306;DHT22;2166;49.926;8.608;2023-05-07T02:31:06;15.20;75.90
4306;DHT22;2166;49.926;8.608;2023-05-07T02:33:35;15.30;75.90
4306;DHT22;2166;49.926;8.608;2023-05-07T02:36:07;15.20;76.10
4306;DHT22;2166;49.926;8.608;2023-05-07T02:38:41;15.10;76.10
4306;DHT22;2166;49.926;8.608;2023-05-07T02:41:10;15.10;76.10
4306;DHT22;2166;49.926;8.608;2023-05-07T02:43:40;15.00;76.20
4306;DHT22;2166;49.926;8.608;2023-05-07T02:46:10;15.00;76.10
4306;DHT22;2166;49.926;8.608;2023-05-07T02:48:43;15.00;76.30
4306;DHT22;2166;49.926;8.608;2023-05-07T02:51:11;15.00;76.30
4306;DHT22;2166;49.926;8.608;2023-05-07T02:53:41;15.00;76.40
4306;DHT22;2166;49.926;8.608;2023-05-07T02:56:10;15.00;76.30
4306;DHT22;2166;49.926;8.608;2023-05-07T02:58:41;15.00;76.30
4306;DHT22;2166;49.926;8.608;2023-05-07T03:01:11;15.00;76.30
4306;DHT22;2166;49.926;8.608;2023-05-07T03:04:00;15.00;76.30
4306;DHT22;2166;49.926;8.608;2023-05-07T03:06:30;15.10;76.10
4306;DHT22;2166;49.926;8.608;2023-05-07T03:08:59;15.10;76.10
4306;DHT22;2166;49.926;8.608;2023-05-07T03:11:29;15.10;76.10
4306;DHT22;2166;49.926;8.608;2023-05-07T03:14:00;15.10;76.00
4306;DHT22;2166;49.926;8.608;2023-05-07T03:16:29;15.10;76.00
4306;DHT22;2166;49.926;8.608;2023-05-07T03:18:57;15.10;76.00
4306;DHT22;2166;49.926;8.608;2023-05-07T03:21:26;15.10;76.10
4306;DHT22;2166;49.926;8.608;2023-05-07T03:23:55;15.10;76.00
4306;DHT22;2166;49.926;8.608;2023-05-07T03:26:23;15.10;76.10
4306;DHT22;2166;49.926;8.608;2023-05-07T03:28:53;15.10;76.10
4306;DHT22;2166;49.926;8.608;2023-05-07T03:31:24;15.10;76.00
4306;DHT22;2166;49.926;8.608;2023-05-07T03:33:54;15.10;76.00
4306;DHT22;2166;49.926;8.608;2023-05-07T03:36:23;15.10;75.90
4306;DHT22;2166;49.926;8.608;2023-05-07T03:38:54;15.10;76.00
4306;DHT22;2166;49.926;8.608;2023-05-07T03:41:26;15.10;76.00
4306;DHT22;2166;49.926;8.608;2023-05-07T03:43:54;15.10;76.10
4306;DHT22;2166;49.926;8.608;2023-05-07T03:46:24;15.10;76.10
4306;DHT22;2166;49.926;8.608;2023-05-07T03:48:56;15.10;76.10
4306;DHT22;2166;49.926;8.608;2023-05-07T03:51:24;15.10;76.00
4306;DHT22;2166;49.926;8.608;2023-05-07T03:53:53;15.10;75.90
4306;DHT22;2166;49.926;8.608;2023-05-07T03:56:24;15.10;76.00
4306;DHT22;2166;49.926;8.608;2023-05-07T03:58:57;15.00;75.90
4306;DHT22;2166;49.926;8.608;2023-05-07T04:01:29;15.00;75.90
4306;DHT22;2166;49.926;8.608;2023-05-07T04:03:58;14.90;76.00
4306;DHT22;2166;49.926;8.608;2023-05-07T04:06:28;14.90;76.00
4306;DHT22;2166;49.926;8.608;2023-05-07T04:08:58;14.80;76.10
4306;DHT22;2166;49.926;8.608;2023-05-07T04:11:28;14.80;76.00
4306;DHT22;2166;49.926;8.608;2023-05-07T04:13:56;14.80;76.10
4306;DHT22;2166;49.926;8.608;2023-05-07T04:16:24;14.80;76.10
4306;DHT22;2166;49.926;8.608;2023-05-07T04:18:55;14.80;76.10
4306;DHT22;2166;49.926;8.608;2023-05-07T04:21:23;14.90;76.00
4306;DHT22;2166;49.926;8.608;2023-05-07T04:23:55;14.90;76.00
4306;DHT22;2166;49.926;8.608;2023-05-07T04:26:24;14.90;76.00
4306;DHT22;2166;49.926;8.608;2023-05-07T04:28:52;15.00;75.90
4306;DHT22;2166;49.926;8.608;2023-05-07T04:31:26;15.00;75.90
4306;DHT22;2166;49.926;8.608;2023-05-07T04:33:57;15.10;75.70
4306;DHT22;2166;49.926;8.608;2023-05-07T04:36:28;15.20;75.50
4306;DHT22;2166;49.926;8.608;2023-05-07T04:39:02;15.30;75.40
4306;DHT22;2166;49.926;8.608;2023-05-07T04:41:31;15.40;75.30
4306;DHT22;2166;49.926;8.608;2023-05-07T04:44:00;15.40;75.30
4306;DHT22;2166;49.926;8.608;2023-05-07T04:46:32;15.40;75.20
4306;DHT22;2166;49.926;8.608;2023-05-07T04:49:02;15.50;75.10
4306;DHT22;2166;49.926;8.608;2023-05-07T04:51:30;15.50;75.00
4306;DHT22;2166;49.926;8.608;2023-05-07T04:54:00;15.50;75.00
4306;DHT22;2166;49.926;8.608;2023-05-07T04:56:30;15.60;74.90
4306;DHT22;2166;49.926;8.608;2023-05-07T04:59:01;15.60;74.90
4306;DHT22;2166;49.926;8.608;2023-05-07T05:01:31;15.70;74.80
4306;DHT22;2166;49.926;8.608;2023-05-07T05:04:02;15.70;74.70
4306;DHT22;2166;49.926;8.608;2023-05-07T05:06:30;15.70;74.70
4306;DHT22;2166;49.926;8.608;2023-05-07T05:09:03;15.70;74.70
4306;DHT22;2166;49.926;8.608;2023-05-07T05:11:33;15.70;74.70
4306;DHT22;2166;49.926;8.608;2023-05-07T05:14:01;15.80;74.50
4306;DHT22;2166;49.926;8.608;2023-05-07T05:16:30;15.90;74.40
4306;DHT22;2166;49.926;8.608;2023-05-07T05:18:59;16.00;74.40
4306;DHT22;2166;49.926;8.608;2023-05-07T05:21:31;16.20;74.10
4306;DHT22;2166;49.926;8.608;2023-05-07T05:24:05;16.30;74.00
4306;DHT22;2166;49.926;8.608;2023-05-07T05:26:35;16.30;73.80
4306;DHT22;2166;49.926;8.608;2023-05-07T05:29:04;16.50;73.70
4306;DHT22;2166;49.926;8.608;2023-05-07T05:31:38;16.50;73.50
4306;DHT22;2166;49.926;8.608;2023-05-07T05:34:06;16.70;73.50
4306;DHT22;2166;49.926;8.608;2023-05-07T05:36:38;17.00;73.40
4306;DHT22;2166;49.926;8.608;2023-05-07T05:39:06;17.20;73.10
4306;DHT22;2166;49.926;8.608;2023-05-07T05:41:35;17.30;72.90
4306;DHT22;2166;49.926;8.608;2023-05-07T05:44:04;17.50;72.90
4306;DHT22;2166;49.926;8.608;2023-05-07T05:46:32;17.60;72.80
4306;DHT22;2166;49.926;8.608;2023-05-07T05:49:03;17.60;72.80
4306;DHT22;2166;49.926;8.608;2023-05-07T05:51:32;17.70;72.50
4306;DHT22;2166;49.926;8.608;2023-05-07T05:54:02;17.80;72.30
4306;DHT22;2166;49.926;8.608;2023-05-07T05:56:32;17.90;72.40
4306;DHT22;2166;49.926;8.608;2023-05-07T05:59:03;17.90;72.40
4306;DHT22;2166;49.926;8.608;2023-05-07T06:01:32;18.00;72.20
4306;DHT22;2166;49.926;8.608;2023-05-07T06:04:04;18.10;72.20
4306;DHT22;2166;49.926;8.608;2023-05-07T06:06:34;18.20;71.90
4306;DHT22;2166;49.926;8.608;2023-05-07T06:09:05;18.40;71.90
4306;DHT22;2166;49.926;8.608;2023-05-07T06:11:41;18.40;71.80
4306;DHT22;2166;49.926;8.608;2023-05-07T06:14:10;18.50;71.50
4306;DHT22;2166;49.926;8.608;2023-05-07T06:16:38;18.60;71.60
4306;DHT22;2166;49.926;8.608;2023-05-07T06:19:07;18.70;71.40
4306;DHT22;2166;49.926;8.608;2023-05-07T06:21:38;18.80;70.80
4306;DHT22;2166;49.926;8.608;2023-05-07T06:24:10;18.90;71.10
4306;DHT22;2166;49.926;8.608;2023-05-07T06:26:39;18.90;71.10
4306;DHT22;2166;49.926;8.608;2023-05-07T06:29:07;18.90;70.90
4306;DHT22;2166;49.926;8.608;2023-05-07T06:31:41;19.10;70.90
4306;DHT22;2166;49.926;8.608;2023-05-07T06:34:11;19.10;70.50
4306;DHT22;2166;49.926;8.608;2023-05-07T06:36:42;19.20;70.60
4306;DHT22;2166;49.926;8.608;2023-05-07T06:39:38;19.20;70.70
4306;DHT22;2166;49.926;8.608;2023-05-07T06:42:06;19.60;70.30
4306;DHT22;2166;49.926;8.608;2023-05-07T06:44:40;19.70;69.80
4306;DHT22;2166;49.926;8.608;2023-05-07T06:47:12;19.80;69.70
4306;DHT22;2166;49.926;8.608;2023-05-07T06:49:44;19.90;69.80
4306;DHT22;2166;49.926;8.608;2023-05-07T06:52:16;20.10;69.60
4306;DHT22;2166;49.926;8.608;2023-05-07T06:54:47;20.10;69.30
4306;DHT22;2166;49.926;8.608;2023-05-07T06:57:18;20.10;69.10
4306;DHT22;2166;49.926;8.608;2023-05-07T06:59:49;20.10;69.00
4306;DHT22;2166;49.926;8.608;2023-05-07T07:02:18;19.90;69.40
4306;DHT22;2166;49.926;8.608;2023-05-07T07:04:49;19.90;69.30
4306;DHT22;2166;49.926;8.608;2023-05-07T07:07:18;19.90;69.40
4306;DHT22;2166;49.926;8.608;2023-05-07T07:09:51;19.90;69.50
4306;DHT22;2166;49.926;8.608;2023-05-07T07:12:20;19.80;69.40
4306;DHT22;2166;49.926;8.608;2023-05-07T07:14:49;19.80;69.50
4306;DHT22;2166;49.926;8.608;2023-05-07T07:17:18;20.00;69.20
4306;DHT22;2166;49.926;8.608;2023-05-07T07:19:46;20.00;68.90
4306;DHT22;2166;49.926;8.608;2023-05-07T07:22:16;19.90;68.90
4306;DHT22;2166;49.926;8.608;2023-05-07T07:24:46;19.90;69.30
4306;DHT22;2166;49.926;8.608;2023-05-07T07:27:19;20.00;68.80
4306;DHT22;2166;49.926;8.608;2023-05-07T07:29:47;20.00;68.90
4306;DHT22;2166;49.926;8.608;2023-05-07T07:32:16;19.90;68.80
4306;DHT22;2166;49.926;8.608;2023-05-07T07:34:45;19.90;68.80
4306;DHT22;2166;49.926;8.608;2023-05-07T07:37:14;19.70;69.10
4306;DHT22;2166;49.926;8.608;2023-05-07T07:39:43;19.80;69.40
4306;DHT22;2166;49.926;8.608;2023-05-07T07:42:13;19.80;68.80
4306;DHT22;2166;49.926;8.608;2023-05-07T07:44:44;19.80;69.20
4306;DHT22;2166;49.926;8.608;2023-05-07T07:47:14;19.90;68.90
4306;DHT22;2166;49.926;8.608;2023-05-07T07:49:44;19.80;68.70
4306;DHT22;2166;49.926;8.608;2023-05-07T07:52:12;19.90;69.10
4306;DHT22;2166;49.926;8.608;2023-05-07T07:54:44;20.10;68.90
4306;DHT22;2166;49.926;8.608;2023-05-07T07:57:13;20.40;68.50
4306;DHT22;2166;49.926;8.608;2023-05-07T07:59:43;20.60;67.70
4306;DHT22;2166;49.926;8.608;2023-05-07T08:02:14;20.60;68.20
4306;DHT22;2166;49.926;8.608;2023-05-07T08:04:44;20.60;67.70
4306;DHT22;2166;49.926;8.608;2023-05-07T08:07:13;20.50;67.60
4306;DHT22;2166;49.926;8.608;2023-05-07T08:09:47;20.30;67.70
4306;DHT22;2166;49.926;8.608;2023-05-07T08:12:18;20.20;68.10
4306;DHT22;2166;49.926;8.608;2023-05-07T08:14:49;20.30;68.50
4306;DHT22;2166;49.926;8.608;2023-05-07T08:17:18;20.40;67.80
4306;DHT22;2166;49.926;8.608;2023-05-07T08:19:50;20.40;68.10
4306;DHT22;2166;49.926;8.608;2023-05-07T08:22:19;20.40;68.10
4306;DHT22;2166;49.926;8.608;2023-05-07T08:24:50;20.40;68.10
4306;DHT22;2166;49.926;8.608;2023-05-07T08:27:20;20.40;67.90
4306;DHT22;2166;49.926;8.608;2023-05-07T08:29:50;20.40;67.70
4306;DHT22;2166;49.926;8.608;2023-05-07T08:32:20;20.40;68.20
4306;DHT22;2166;49.926;8.608;2023-05-07T08:34:50;20.70;68.20
4306;DHT22;2166;49.926;8.608;2023-05-07T08:37:19;20.90;67.10
4306;DHT22;2166;49.926;8.608;2023-05-07T08:39:49;20.90;66.90
4306;DHT22;2166;49.926;8.608;2023-05-07T08:42:23;20.90;67.10
4306;DHT22;2166;49.926;8.608;2023-05-07T08:44:57;20.80;67.40
4306;DHT22;2166;49.926;8.608;2023-05-07T08:51:27;20.80;67.30
4306;DHT22;2166;49.926;8.608;2023-05-07T08:53:58;20.90;67.40
4306;DHT22;2166;49.926;8.608;2023-05-07T08:56:31;21.00;67.20
4306;DHT22;2166;49.926;8.608;2023-05-07T08:59:00;21.20;66.80
4306;DHT22;2166;49.926;8.608;2023-05-07T09:01:32;21.40;66.50
4306;DHT22;2166;49.926;8.608;2023-05-07T09:04:04;21.50;66.00
4306;DHT22;2166;49.926;8.608;2023-05-07T09:06:34;21.60;66.20
4306;DHT22;2166;49.926;8.608;2023-05-07T09:09:05;21.80;65.60
4306;DHT22;2166;49.926;8.608;2023-05-07T09:11:33;22.00;65.20
4306;DHT22;2166;49.926;8.608;2023-05-07T09:14:02;22.10;64.70
4306;DHT22;2166;49.926;8.608;2023-05-07T09:16:38;22.10;64.80
4306;DHT22;2166;49.926;8.608;2023-05-07T09:19:08;22.30;64.40
4306;DHT22;2166;49.926;8.608;2023-05-07T09:21:44;22.50;63.90
4306;DHT22;2166;49.926;8.608;2023-05-07T09:24:15;22.70;63.60
4306;DHT22;2166;49.926;8.608;2023-05-07T09:26:45;22.90;63.30
4306;DHT22;2166;49.926;8.608;2023-05-07T09:29:15;23.10;62.70
4306;DHT22;2166;49.926;8.608;2023-05-07T09:31:47;23.30;62.00
4306;DHT22;2166;49.926;8.608;2023-05-07T09:34:18;23.60;61.60
4306;DHT22;2166;49.926;8.608;2023-05-07T09:36:47;23.90;60.70
4306;DHT22;2166;49.926;8.608;2023-05-07T09:39:16;24.30;60.00
4306;DHT22;2166;49.926;8.608;2023-05-07T09:41:47;24.40;59.90
4306;DHT22;2166;49.926;8.608;2023-05-07T09:44:31;24.50;59.30
4306;DHT22;2166;49.926;8.608;2023-05-07T09:47:04;24.70;58.80
4306;DHT22;2166;49.926;8.608;2023-05-07T09:49:40;25.00;58.10
4306;DHT22;2166;49.926;8.608;2023-05-07T09:52:13;25.50;58.00
4306;DHT22;2166;49.926;8.608;2023-05-07T09:54:50;25.70;56.80
4306;DHT22;2166;49.926;8.608;2023-05-07T09:57:24;26.40;56.20
4306;DHT22;2166;49.926;8.608;2023-05-07T09:59:58;27.30;54.00
4306;DHT22;2166;49.926;8.608;2023-05-07T10:02:36;27.90;52.80
4306;DHT22;2166;49.926;8.608;2023-05-07T10:05:14;28.60;51.20
4306;DHT22;2166;49.926;8.608;2023-05-07T10:07:44;28.80;50.20
4306;DHT22;2166;49.926;8.608;2023-05-07T10:10:14;28.70;49.90
4306;DHT22;2166;49.926;8.608;2023-05-07T10:12:45;28.40;50.70
4306;DHT22;2166;49.926;8.608;2023-05-07T10:15:21;28.40;51.20
4306;DHT22;2166;49.926;8.608;2023-05-07T10:17:56;28.60;50.10
4306;DHT22;2166;49.926;8.608;2023-05-07T10:20:27;28.60;50.70
4306;DHT22;2166;49.926;8.608;2023-05-07T10:22:57;29.00;50.20
4306;DHT22;2166;49.926;8.608;2023-05-07T10:25:39;29.20;49.90
4306;DHT22;2166;49.926;8.608;2023-05-07T10:28:22;29.10;48.90
4306;DHT22;2166;49.926;8.608;2023-05-07T10:31:07;28.80;49.90
4306;DHT22;2166;49.926;8.608;2023-05-07T10:33:45;28.50;49.60
4306;DHT22;2166;49.926;8.608;2023-05-07T10:36:18;28.30;51.50
4306;DHT22;2166;49.926;8.608;2023-05-07T10:38:51;28.30;50.20
4306;DHT22;2166;49.926;8.608;2023-05-07T10:41:20;28.60;50.50
4306;DHT22;2166;49.926;8.608;2023-05-07T10:43:50;28.90;49.70
4306;DHT22;2166;49.926;8.608;2023-05-07T10:46:24;30.00;47.50
4306;DHT22;2166;49.926;8.608;2023-05-07T10:49:15;30.90;46.80
4306;DHT22;2166;49.926;8.608;2023-05-07T10:52:14;31.70;44.50
4306;DHT22;2166;49.926;8.608;2023-05-07T10:55:20;31.40;44.80
4306;DHT22;2166;49.926;8.608;2023-05-07T10:58:25;31.90;44.20
4306;DHT22;2166;49.926;8.608;2023-05-07T11:01:11;32.20;43.80
4306;DHT22;2166;49.926;8.608;2023-05-07T11:04:12;31.90;43.50
4306;DHT22;2166;49.926;8.608;2023-05-07T11:07:29;33.20;43.70
4306;DHT22;2166;49.926;8.608;2023-05-07T11:10:09;35.50;40.00
4306;DHT22;2166;49.926;8.608;2023-05-07T11:12:57;37.10;38.50
4306;DHT22;2166;49.926;8.608;2023-05-07T11:15:44;37.20;36.30
4306;DHT22;2166;49.926;8.608;2023-05-07T11:18:21;36.50;37.70
4306;DHT22;2166;49.926;8.608;2023-05-07T11:20:54;36.60;38.30
4306;DHT22;2166;49.926;8.608;2023-05-07T11:23:58;37.20;37.60
4306;DHT22;2166;49.926;8.608;2023-05-07T11:26:48;37.80;35.50
4306;DHT22;2166;49.926;8.608;2023-05-07T11:29:20;37.30;36.10
4306;DHT22;2166;49.926;8.608;2023-05-07T11:31:55;36.80;37.20
4306;DHT22;2166;49.926;8.608;2023-05-07T11:34:30;36.90;36.40
4306;DHT22;2166;49.926;8.608;2023-05-07T11:36:59;36.80;36.40
4306;DHT22;2166;49.926;8.608;2023-05-07T11:39:47;35.90;36.90
4306;DHT22;2166;49.926;8.608;2023-05-07T11:42:36;34.80;38.90
4306;DHT22;2166;49.926;8.608;2023-05-07T11:45:07;34.20;38.90
4306;DHT22;2166;49.926;8.608;2023-05-07T11:47:37;33.50;40.20
4306;DHT22;2166;49.926;8.608;2023-05-07T11:50:10;32.20;41.70
4306;DHT22;2166;49.926;8.608;2023-05-07T11:52:38;31.70;41.90
4306;DHT22;2166;49.926;8.608;2023-05-07T11:55:08;31.50;42.60
4306;DHT22;2166;49.926;8.608;2023-05-07T11:57:37;31.60;42.60
4306;DHT22;2166;49.926;8.608;2023-05-07T12:00:07;31.90;43.10
4306;DHT22;2166;49.926;8.608;2023-05-07T12:02:39;32.50;42.20
4306;DHT22;2166;49.926;8.608;2023-05-07T12:05:09;32.80;42.30
4306;DHT22;2166;49.926;8.608;2023-05-07T12:07:38;32.70;41.20
4306;DHT22;2166;49.926;8.608;2023-05-07T12:10:11;33.00;41.10
4306;DHT22;2166;49.926;8.608;2023-05-07T12:12:41;33.30;41.60
4306;DHT22;2166;49.926;8.608;2023-05-07T12:15:16;32.80;40.50
4306;DHT22;2166;49.926;8.608;2023-05-07T12:17:44;32.50;40.90
4306;DHT22;2166;49.926;8.608;2023-05-07T12:20:13;31.90;40.40
4306;DHT22;2166;49.926;8.608;2023-05-07T12:22:42;31.70;40.70
4306;DHT22;2166;49.926;8.608;2023-05-07T12:25:12;31.50;40.70
4306;DHT22;2166;49.926;8.608;2023-05-07T12:27:51;31.30;41.70
4306;DHT22;2166;49.926;8.608;2023-05-07T12:30:20;31.40;40.70
4306;DHT22;2166;49.926;8.608;2023-05-07T12:32:52;31.50;41.30
4306;DHT22;2166;49.926;8.608;2023-05-07T12:35:27;32.20;39.90
4306;DHT22;2166;49.926;8.608;2023-05-07T12:37:55;32.40;40.50
4306;DHT22;2166;49.926;8.608;2023-05-07T12:40:39;32.60;40.20
4306;DHT22;2166;49.926;8.608;2023-05-07T12:43:08;32.70;39.70
4306;DHT22;2166;49.926;8.608;2023-05-07T12:45:45;33.10;39.50
4306;DHT22;2166;49.926;8.608;2023-05-07T12:48:14;34.00;38.90
4306;DHT22;2166;49.926;8.608;2023-05-07T12:50:43;34.60;37.80
4306;DHT22;2166;49.926;8.608;2023-05-07T12:53:13;34.80;37.60
4306;DHT22;2166;49.926;8.608;2023-05-07T12:55:44;34.60;37.40
4306;DHT22;2166;49.926;8.608;2023-05-07T12:58:16;35.20;37.50
4306;DHT22;2166;49.926;8.608;2023-05-07T13:00:47;34.70;37.20
4306;DHT22;2166;49.926;8.608;2023-05-07T13:03:22;33.90;38.00
4306;DHT22;2166;49.926;8.608;2023-05-07T13:05:52;32.90;38.90
4306;DHT22;2166;49.926;8.608;2023-05-07T13:08:29;32.10;38.80
4306;DHT22;2166;49.926;8.608;2023-05-07T13:11:24;31.70;38.40
4306;DHT22;2166;49.926;8.608;2023-05-07T13:13:53;31.70;40.00
4306;DHT22;2166;49.926;8.608;2023-05-07T13:16:22;32.00;41.10
4306;DHT22;2166;49.926;8.608;2023-05-07T13:18:50;31.70;39.40
4306;DHT22;2166;49.926;8.608;2023-05-07T13:21:19;31.90;40.10
4306;DHT22;2166;49.926;8.608;2023-05-07T13:23:48;32.70;39.10
4306;DHT22;2166;49.926;8.608;2023-05-07T13:26:17;32.70;39.20
4306;DHT22;2166;49.926;8.608;2023-05-07T13:28:54;32.80;39.70
4306;DHT22;2166;49.926;8.608;2023-05-07T13:31:24;33.30;37.50
4306;DHT22;2166;49.926;8.608;2023-05-07T13:33:53;33.40;38.10
4306;DHT22;2166;49.926;8.608;2023-05-07T13:36:23;33.50;38.60
4306;DHT22;2166;49.926;8.608;2023-05-07T13:38:53;34.10;38.60
4306;DHT22;2166;49.926;8.608;2023-05-07T13:41:22;34.80;37.60
4306;DHT22;2166;49.926;8.608;2023-05-07T13:43:50;35.30;37.30
4306;DHT22;2166;49.926;8.608;2023-05-07T13:46:21;35.50;36.70
4306;DHT22;2166;49.926;8.608;2023-05-07T13:48:50;35.20;36.50
4306;DHT22;2166;49.926;8.608;2023-05-07T13:51:19;34.70;37.10
4306;DHT22;2166;49.926;8.608;2023-05-07T13:53:53;33.90;37.20
4306;DHT22;2166;49.926;8.608;2023-05-07T13:56:21;33.30;38.30
4306;DHT22;2166;49.926;8.608;2023-05-07T13:58:50;33.00;38.80
4306;DHT22;2166;49.926;8.608;2023-05-07T14:01:30;32.80;38.20
4306;DHT22;2166;49.926;8.608;2023-05-07T14:04:01;33.10;38.40
4306;DHT22;2166;49.926;8.608;2023-05-07T14:06:36;33.40;38.30
4306;DHT22;2166;49.926;8.608;2023-05-07T14:09:20;34.00;38.10
4306;DHT22;2166;49.926;8.608;2023-05-07T14:11:53;33.90;36.40
4306;DHT22;2166;49.926;8.608;2023-05-07T14:15:11;32.70;37.60
4306;DHT22;2166;49.926;8.608;2023-05-07T14:17:55;32.10;38.40
4306;DHT22;2166;49.926;8.608;2023-05-07T14:20:26;32.00;38.80
4306;DHT22;2166;49.926;8.608;2023-05-07T14:22:54;32.00;39.40
4306;DHT22;2166;49.926;8.608;2023-05-07T14:25:24;31.90;38.90
4306;DHT22;2166;49.926;8.608;2023-05-07T14:27:53;32.00;39.00
4306;DHT22;2166;49.926;8.608;2023-05-07T14:30:25;32.40;38.90
4306;DHT22;2166;49.926;8.608;2023-05-07T14:32:55;32.80;38.50
4306;DHT22;2166;49.926;8.608;2023-05-07T14:35:23;33.10;38.40
4306;DHT22;2166;49.926;8.608;2023-05-07T14:37:52;33.30;38.70
4306;DHT22;2166;49.926;8.608;2023-05-07T14:40:21;33.30;38.50
4306;DHT22;2166;49.926;8.608;2023-05-07T14:42:56;33.10;38.60
4306;DHT22;2166;49.926;8.608;2023-05-07T14:45:25;32.50;38.40
4306;DHT22;2166;49.926;8.608;2023-05-07T14:47:55;32.00;39.30
4306;DHT22;2166;49.926;8.608;2023-05-07T14:50:23;31.20;40.40
4306;DHT22;2166;49.926;8.608;2023-05-07T14:53:17;30.70;41.70
4306;DHT22;2166;49.926;8.608;2023-05-07T14:55:46;30.10;42.40
4306;DHT22;2166;49.926;8.608;2023-05-07T14:58:15;29.50;42.70
4306;DHT22;2166;49.926;8.608;2023-05-07T15:00:44;28.80;43.10
4306;DHT22;2166;49.926;8.608;2023-05-07T15:03:14;28.50;43.40
4306;DHT22;2166;49.926;8.608;2023-05-07T15:05:44;28.30;44.20
4306;DHT22;2166;49.926;8.608;2023-05-07T15:08:13;28.10;43.90
4306;DHT22;2166;49.926;8.608;2023-05-07T15:10:41;27.60;44.70
4306;DHT22;2166;49.926;8.608;2023-05-07T15:13:10;27.10;45.60
4306;DHT22;2166;49.926;8.608;2023-05-07T15:15:43;26.80;46.00
4306;DHT22;2166;49.926;8.608;2023-05-07T15:18:14;26.60;46.50
4306;DHT22;2166;49.926;8.608;2023-05-07T15:20:43;26.50;46.90
4306;DHT22;2166;49.926;8.608;2023-05-07T15:23:13;26.30;48.00
4306;DHT22;2166;49.926;8.608;2023-05-07T15:25:45;26.10;48.50
4306;DHT22;2166;49.926;8.608;2023-05-07T15:28:20;25.90;49.20
4306;DHT22;2166;49.926;8.608;2023-05-07T15:30:49;25.70;50.60
4306;DHT22;2166;49.926;8.608;2023-05-07T15:33:24;25.40;50.60
4306;DHT22;2166;49.926;8.608;2023-05-07T15:35:57;25.10;51.60
4306;DHT22;2166;49.926;8.608;2023-05-07T15:38:26;24.80;51.40
4306;DHT22;2166;49.926;8.608;2023-05-07T15:40:55;24.70;51.50
4306;DHT22;2166;49.926;8.608;2023-05-07T15:43:26;24.60;53.00
4306;DHT22;2166;49.926;8.608;2023-05-07T15:45:55;24.50;52.50
4306;DHT22;2166;49.926;8.608;2023-05-07T15:48:26;24.40;52.70
4306;DHT22;2166;49.926;8.608;2023-05-07T15:50:54;24.30;53.50
4306;DHT22;2166;49.926;8.608;2023-05-07T15:53:23;24.20;53.90
4306;DHT22;2166;49.926;8.608;2023-05-07T15:55:54;24.10;54.00
4306;DHT22;2166;49.926;8.608;2023-05-07T15:58:27;24.10;54.60
4306;DHT22;2166;49.926;8.608;2023-05-07T16:00:59;24.00;54.50
4306;DHT22;2166;49.926;8.608;2023-05-07T16:03:31;23.90;57.80
4306;DHT22;2166;49.926;8.608;2023-05-07T16:06:03;23.60;60.00
4306;DHT22;2166;49.926;8.608;2023-05-07T16:08:32;23.10;63.70
4306;DHT22;2166;49.926;8.608;2023-05-07T16:11:02;22.10;69.60
4306;DHT22;2166;49.926;8.608;2023-05-07T16:13:31;21.00;71.50
4306;DHT22;2166;49.926;8.608;2023-05-07T16:16:06;20.00;72.40
4306;DHT22;2166;49.926;8.608;2023-05-07T16:18:36;19.10;73.30
4306;DHT22;2166;49.926;8.608;2023-05-07T16:21:05;18.40;74.80
4306;DHT22;2166;49.926;8.608;2023-05-07T16:23:35;17.80;75.30
4306;DHT22;2166;49.926;8.608;2023-05-07T16:26:04;17.40;75.80
4306;DHT22;2166;49.926;8.608;2023-05-07T16:28:34;17.10;76.20
4306;DHT22;2166;49.926;8.608;2023-05-07T16:31:03;16.90;76.50
4306;DHT22;2166;49.926;8.608;2023-05-07T16:33:32;16.60;76.70
4306;DHT22;2166;49.926;8.608;2023-05-07T16:36:07;16.50;77.00